Time;durP1;ratioP1;P1;durP2;ratioP2;P2;SDS_P1;SDS_P2;PMS_P1;PMS_P2;Temp;Humidity;BMP_temperature;BMP_pressure;BME280_temperature;BME280_humidity;BME280_pressure;Samples;Min_cycle;Max_cycle;Signal;HPM_P1;HPM_P2
2022/02/19 00:00:24;;;;;;;55.80;50.13;;;;;;;-0.81;100.00;101266.88;4980029;28;20459;-82
2022/02/19 00:02:52;;;;;;;61.75;55.80;;;;;;;-0.66;100.00;101269.25;4984783;28;20054;-80
2022/02/19 00:05:19;;;;;;;52.15;47.78;;;;;;;-0.49;100.00;101273.97;4991790;28;20057;-80
2022/02/19 00:07:46;;;;;;;54.28;49.03;;;;;;;-0.38;100.00;101260.91;4986752;28;20468;-79
2022/02/19 00:10:13;;;;;;;52.83;47.75;;;;;;;-0.24;100.00;101265.88;4985817;28;20047;-79
2022/02/19 00:12:41;;;;;;;62.40;56.50;;;;;;;-0.22;100.00;101257.06;4979385;28;20495;-79
2022/02/19 00:15:11;;;;;;;62.25;55.67;;;;;;;-0.15;100.00;101264.31;4994409;28;20075;-78
2022/02/19 00:17:38;;;;;;;57.03;52.05;;;;;;;-0.51;100.00;101260.22;4985326;28;20054;-79
2022/02/19 00:20:07;;;;;;;51.83;47.20;;;;;;;-0.36;100.00;101264.22;4987305;28;20058;-82
2022/02/19 00:22:36;;;;;;;51.38;47.30;;;;;;;-0.35;100.00;101255.44;4996324;28;20051;-80
2022/02/19 00:25:04;;;;;;;55.78;51.40;;;;;;;-0.38;100.00;101253.06;4984953;28;20131;-79
2022/02/19 00:27:30;;;;;;;57.38;52.17;;;;;;;-0.22;100.00;101260.50;4985450;28;20050;-80
2022/02/19 00:29:59;;;;;;;49.80;45.80;;;;;;;-0.13;100.00;101265.00;4985528;28;20109;-81
2022/02/19 00:32:28;;;;;;;52.83;48.78;;;;;;;-0.19;100.00;101262.03;4995096;28;20462;-80
2022/02/19 00:34:57;;;;;;;51.58;48.10;;;;;;;-0.24;100.00;101270.25;4993176;28;20085;-79
2022/02/19 00:37:26;;;;;;;49.58;45.70;;;;;;;-0.33;100.00;101271.81;4992164;28;20058;-79
2022/02/19 00:39:56;;;;;;;49.65;46.00;;;;;;;-0.19;100.00;101281.16;4992657;28;20105;-79
2022/02/19 00:42:23;;;;;;;51.58;48.28;;;;;;;-0.10;100.00;101285.63;4990737;28;20055;-80
2022/02/19 00:44:52;;;;;;;49.15;45.53;;;;;;;-0.15;100.00;101286.94;4983429;28;20058;-81
2022/02/19 00:47:19;;;;;;;45.95;42.40;;;;;;;-0.18;100.00;101293.28;4988138;28;20050;-81
2022/02/19 00:49:48;;;;;;;45.90;42.70;;;;;;;-0.52;100.00;101301.13;4986780;28;20125;-82
2022/02/19 00:52:15;;;;;;;52.88;49.28;;;;;;;-0.48;100.00;101288.69;4987779;28;20059;-80
2022/02/19 00:54:45;;;;;;;47.03;43.35;;;;;;;-0.50;100.00;101286.19;4992636;28;20050;-80
2022/02/19 00:57:12;;;;;;;45.90;42.67;;;;;;;-0.49;100.00;101300.06;4987247;28;20120;-79
2022/02/19 00:59:40;;;;;;;50.53;47.45;;;;;;;-0.70;100.00;101292.97;4977521;28;20455;-80
2022/02/19 01:02:06;;;;;;;92.63;73.05;;;;;;;-0.58;100.00;101282.50;5002890;28;20057;-80
2022/02/19 01:04:34;;;;;;;55.47;51.42;;;;;;;-0.73;100.00;101279.31;4991674;28;20051;-79
2022/02/19 01:07:05;;;;;;;51.47;47.92;;;;;;;-0.75;100.00;101292.47;4981304;28;20110;-79
2022/02/19 01:09:31;;;;;;;49.30;45.10;;;;;;;-0.84;100.00;101279.31;4994172;28;20047;-80
2022/02/19 01:12:05;;;;;;;49.90;46.05;;;;;;;-0.84;100.00;101290.59;4995339;28;20468;-80
2022/02/19 01:14:37;;;;;;;48.90;45.50;;;;;;;-0.47;100.00;101285.94;4995911;28;20100;-80
2022/02/19 01:17:04;;;;;;;46.95;43.50;;;;;;;-0.48;100.00;101286.91;4995739;28;20479;-78
2022/02/19 01:19:31;;;;;;;41.72;39.03;;;;;;;-1.16;100.00;101299.06;4988115;28;20054;-79
2022/02/19 01:21:58;;;;;;;49.22;46.00;;;;;;;-1.04;100.00;101296.47;4996324;28;20062;-80
2022/02/19 01:24:32;;;;;;;49.65;46.45;;;;;;;-0.56;100.00;101280.63;4981290;28;20146;-79
2022/02/19 01:26:59;;;;;;;45.35;42.45;;;;;;;-0.59;100.00;101289.50;4983223;28;20487;-81
2022/02/19 01:29:29;;;;;;;47.67;44.10;;;;;;;-0.86;100.00;101276.81;4992500;28;20046;-79
2022/02/19 01:31:57;;;;;;;47.33;44.15;;;;;;;-0.54;100.00;101278.72;5005441;28;20445;-81
2022/02/19 01:34:24;;;;;;;45.63;42.90;;;;;;;-0.71;100.00;101272.19;4996253;28;20055;-80
2022/02/19 01:36:51;;;;;;;50.53;47.25;;;;;;;-0.83;100.00;101280.97;4989413;28;20054;-79
2022/02/19 01:39:29;;;;;;;43.55;40.60;;;;;;;-0.87;100.00;101275.16;4984084;28;20047;-80
2022/02/19 01:42:01;;;;;;;41.38;38.53;;;;;;;-0.82;100.00;101265.19;4982668;28;20387;-79
2022/02/19 01:44:39;;;;;;;;;;;;;;;-0.75;100.00;101258.56;4987494;28;20042;-80
2022/02/19 01:47:08;;;;;;;47.30;44.03;;;;;;;-1.04;100.00;101262.59;4994258;28;20377;-79
2022/02/19 01:49:35;;;;;;;45.13;42.15;;;;;;;-0.76;100.00;101274.31;4983259;28;20043;-78
2022/02/19 01:52:03;;;;;;;39.65;37.25;;;;;;;-0.88;100.00;101278.72;4986304;28;20410;-81
2022/02/19 01:54:31;;;;;;;47.97;45.25;;;;;;;-0.81;100.00;101279.91;4987007;28;20554;-80
2022/02/19 01:57:02;;;;;;;49.45;46.60;;;;;;;-0.65;100.00;101286.56;4985545;28;20407;-80
2022/02/19 01:59:29;;;;;;;46.70;43.87;;;;;;;-1.11;100.00;101287.47;4995427;28;20137;-79
2022/02/19 02:01:56;;;;;;;48.08;45.25;;;;;;;-0.87;100.00;101297.81;4990202;28;20051;-82
2022/02/19 02:04:26;;;;;;;46.25;43.40;;;;;;;-0.87;100.00;101288.22;4987229;28;20108;-80
2022/02/19 02:06:55;;;;;;;43.92;41.42;;;;;;;-0.86;100.00;101273.38;4979608;28;20043;-80
2022/02/19 02:09:22;;;;;;;53.30;48.88;;;;;;;-1.20;100.00;101287.22;4984008;28;20050;-80
2022/02/19 02:11:49;;;;;;;54.80;50.80;;;;;;;-0.96;100.00;101288.91;4986216;28;20050;-80
2022/02/19 02:14:17;;;;;;;47.83;44.83;;;;;;;-1.44;100.00;101295.09;4976089;28;20059;-79
2022/02/19 02:16:45;;;;;;;46.80;43.97;;;;;;;-1.69;100.00;101284.84;4991178;28;20050;-80
2022/02/19 02:19:12;;;;;;;44.50;41.92;;;;;;;-1.64;100.00;101277.50;4990779;28;20459;-80
2022/02/19 02:21:42;;;;;;;48.00;45.08;;;;;;;-1.26;100.00;101276.44;4994126;28;20050;-82
2022/02/19 02:24:09;;;;;;;43.22;40.70;;;;;;;-1.48;100.00;101278.03;4987411;28;20057;-81
2022/02/19 02:26:36;;;;;;;47.42;44.40;;;;;;;-1.47;100.00;101282.28;4987242;28;20051;-83
2022/02/19 02:29:03;;;;;;;47.53;44.55;;;;;;;-1.41;100.00;101274.00;4989135;28;20046;-80
2022/02/19 02:31:30;;;;;;;46.33;43.22;;;;;;;-1.92;100.00;101286.50;5002186;28;20111;-80
2022/02/19 02:33:58;;;;;;;44.70;42.00;;;;;;;-1.82;100.00;101278.84;4988959;28;20046;-83
2022/02/19 02:36:25;;;;;;;49.42;46.08;;;;;;;-1.81;100.00;101283.13;4990751;28;20054;-79
2022/02/19 02:38:54;;;;;;;51.55;47.80;;;;;;;-1.71;100.00;101295.34;4987989;28;20412;-78
2022/02/19 02:41:21;;;;;;;49.92;45.88;;;;;;;-1.64;100.00;101299.16;4978678;28;20121;-81
2022/02/19 02:43:51;;;;;;;46.13;43.08;;;;;;;-2.24;100.00;101297.47;4989332;28;20117;-78
2022/02/19 02:46:19;;;;;;;47.33;44.35;;;;;;;-1.83;100.00;101298.03;4977785;28;20179;-81
2022/02/19 02:48:46;;;;;;;45.55;41.95;;;;;;;-1.82;100.00;101290.09;4980819;28;20054;-79
2022/02/19 02:51:14;;;;;;;46.78;43.35;;;;;;;-2.03;100.00;101291.63;4991037;28;20051;-79
2022/02/19 02:53:41;;;;;;;50.47;47.08;;;;;;;-2.04;100.00;101285.59;5004231;28;20046;-79
2022/02/19 02:56:09;;;;;;;49.70;45.90;;;;;;;-2.22;100.00;101279.13;4983950;28;20109;-80
2022/02/19 02:58:36;;;;;;;48.55;44.33;;;;;;;-2.49;100.00;101266.28;4985033;28;20116;-80
2022/02/19 03:01:09;;;;;;;50.65;46.15;;;;;;;-2.40;100.00;101266.47;5101642;23;20114;-80
2022/02/19 03:03:36;;;;;;;57.90;52.35;;;;;;;-2.35;100.00;101266.97;4980910;28;20109;-79
2022/02/19 03:06:05;;;;;;;108.25;70.70;;;;;;;-2.49;100.00;101254.09;4980190;28;20125;-81
2022/02/19 03:08:33;;;;;;;83.85;62.58;;;;;;;-2.50;100.00;101242.03;4977133;28;20470;-82
2022/02/19 03:11:02;;;;;;;82.82;69.07;;;;;;;-2.35;100.00;101240.97;4974982;28;20042;-79
2022/02/19 03:13:31;;;;;;;64.30;58.45;;;;;;;-2.38;100.00;101233.38;4991683;28;20054;-80
2022/02/19 03:15:58;;;;;;;62.78;57.08;;;;;;;-2.86;100.00;101224.66;4992051;28;20050;-79
2022/02/19 03:18:25;;;;;;;59.58;53.90;;;;;;;-2.21;100.00;101221.75;4988302;28;20458;-79
2022/02/19 03:20:53;;;;;;;60.15;54.83;;;;;;;-1.76;100.00;101218.50;4981686;28;20128;-80
2022/02/19 03:23:28;;;;;;;52.38;48.83;;;;;;;-1.11;100.00;101220.53;4987522;28;20113;-80
2022/02/19 03:25:55;;;;;;;53.10;48.67;;;;;;;-0.60;100.00;101227.03;4975792;28;20105;-78
2022/02/19 03:28:23;;;;;;;73.72;62.45;;;;;;;-0.25;100.00;101229.41;4985747;28;20047;-79
2022/02/19 03:30:54;;;;;;;83.90;70.97;;;;;;;-0.57;100.00;101218.94;4983607;28;20046;-81
2022/02/19 03:33:22;;;;;;;56.20;52.50;;;;;;;-0.72;100.00;101220.97;4991595;28;20050;-79
2022/02/19 03:35:49;;;;;;;50.83;47.40;;;;;;;-1.11;100.00;101222.31;4980830;28;20455;-81
2022/02/19 03:38:16;;;;;;;49.05;45.75;;;;;;;-1.06;100.00;101223.59;4985257;28;20483;-80
2022/02/19 03:40:44;;;;;;;46.97;44.30;;;;;;;-1.04;100.00;101226.91;4980405;28;20117;-80
2022/02/19 03:43:12;;;;;;;47.25;44.13;;;;;;;-1.67;100.00;101231.66;4987108;28;20054;-80
2022/02/19 03:45:41;;;;;;;49.90;46.25;;;;;;;-1.22;100.00;101236.13;4993661;28;20054;-78
2022/02/19 03:48:09;;;;;;;50.92;47.15;;;;;;;-1.81;100.00;101236.25;4984588;28;20065;-79
2022/02/19 03:50:36;;;;;;;49.42;45.72;;;;;;;-2.08;100.00;101238.16;4978944;28;20113;-79
2022/02/19 03:53:09;;;;;;;48.97;44.83;;;;;;;-2.09;100.00;101239.09;4990922;28;20055;-80
2022/02/19 03:55:37;;;;;;;55.90;51.15;;;;;;;-1.58;100.00;101234.53;4982271;28;20062;-79
2022/02/19 03:58:04;;;;;;;54.72;49.80;;;;;;;-1.57;100.00;101236.19;4989860;28;20046;-79
2022/02/19 04:00:31;;;;;;;50.65;45.38;;;;;;;-1.74;100.00;101230.47;4995430;28;20201;-79
2022/02/19 04:02:58;;;;;;;66.95;60.00;;;;;;;-1.77;100.00;101235.06;5026050;28;20053;-80
2022/02/19 04:05:26;;;;;;;61.92;55.90;;;;;;;-1.90;100.00;101233.38;5031987;28;20052;-80
2022/02/19 04:08:02;;;;;;;56.63;51.63;;;;;;;-1.90;100.00;101232.53;5023564;28;20077;-81
2022/02/19 04:10:29;;;;;;;61.90;55.47;;;;;;;-1.83;100.00;101231.13;5021233;28;20046;-80
2022/02/19 04:13:01;;;;;;;50.03;46.08;;;;;;;-2.21;100.00;101224.38;5031469;28;20107;-79
2022/02/19 04:15:29;;;;;;;52.65;48.22;;;;;;;-2.34;100.00;101231.38;5033909;28;20055;-79
2022/02/19 04:17:56;;;;;;;44.55;40.78;;;;;;;-2.59;100.00;101229.69;5026851;28;20482;-79
2022/02/19 04:20:23;;;;;;;49.30;44.90;;;;;;;-2.70;100.00;101232.22;5032355;28;20528;-79
2022/02/19 04:22:51;;;;;;;50.22;45.63;;;;;;;-2.66;100.00;101231.03;5017530;28;20045;-80
2022/02/19 04:25:18;;;;;;;62.10;53.78;;;;;;;-2.38;100.00;101232.53;5017552;28;20049;-79
2022/02/19 04:27:45;;;;;;;52.28;47.45;;;;;;;-2.16;100.00;101224.84;5036241;28;20054;-82
2022/02/19 04:30:13;;;;;;;61.17;54.75;;;;;;;-2.26;100.00;101218.66;5028703;28;20127;-80
2022/02/19 04:32:40;;;;;;;49.28;44.95;;;;;;;-1.69;100.00;101222.31;5034231;28;20075;-81
2022/02/19 04:35:08;;;;;;;46.70;42.65;;;;;;;-1.86;100.00;101224.38;5035914;28;20379;-79
2022/02/19 04:37:35;;;;;;;51.78;46.88;;;;;;;-2.09;100.00;101233.88;5034190;28;20049;-80
2022/02/19 04:40:03;;;;;;;41.53;38.17;;;;;;;-1.55;100.00;101240.34;5029161;28;20111;-80
2022/02/19 04:42:30;;;;;;;46.35;42.28;;;;;;;-1.61;100.00;101240.78;5028740;28;20053;-78
2022/02/19 04:44:57;;;;;;;50.90;45.97;;;;;;;-2.02;100.00;101236.88;5021893;28;20195;-79
2022/02/19 04:47:25;;;;;;;47.53;43.50;;;;;;;-1.79;100.00;101229.13;5032621;28;20115;-81
2022/02/19 04:49:52;;;;;;;46.10;42.40;;;;;;;-2.08;100.00;101239.91;5024321;28;20053;-79
2022/02/19 04:52:21;;;;;;;43.40;39.55;;;;;;;-2.28;100.00;101248.31;5032042;28;20049;-79
2022/02/19 04:54:47;;;;;;;39.28;36.50;;;;;;;-2.50;100.00;101242.03;5023112;28;20112;-79
2022/02/19 04:57:16;;;;;;;38.65;35.72;;;;;;;-2.14;100.00;101246.41;5027311;28;20049;-80
2022/02/19 04:59:44;;;;;;;41.33;38.15;;;;;;;-2.15;100.00;101236.06;5022018;28;20104;-80
2022/02/19 05:02:11;;;;;;;44.97;41.08;;;;;;;-2.33;100.00;101236.47;5022223;28;20080;-79
2022/02/19 05:04:38;;;;;;;40.85;37.40;;;;;;;-2.44;100.00;101230.38;5028779;28;20053;-80
2022/02/19 05:07:05;;;;;;;42.03;38.75;;;;;;;-2.65;100.00;101230.13;5024476;28;20041;-80
2022/02/19 05:09:32;;;;;;;43.55;40.63;;;;;;;-2.63;100.00;101231.69;5023306;28;20445;-80
2022/02/19 05:12:00;;;;;;;40.67;37.80;;;;;;;-2.41;100.00;101238.78;5027048;28;20108;-80
2022/02/19 05:14:28;;;;;;;37.75;34.40;;;;;;;-2.00;100.00;101237.56;5022270;28;20046;-79
2022/02/19 05:16:56;;;;;;;42.13;38.83;;;;;;;-1.65;100.00;101235.00;5025154;28;20119;-78
2022/02/19 05:19:23;;;;;;;42.53;39.15;;;;;;;-2.00;100.00;101231.53;5020621;28;20061;-80
2022/02/19 05:21:50;;;;;;;39.55;36.47;;;;;;;-1.83;100.00;101232.91;5020815;28;20470;-80
2022/02/19 05:24:16;;;;;;;43.75;40.20;;;;;;;-1.73;100.00;101220.88;5022861;28;20046;-81
2022/02/19 05:26:43;;;;;;;44.65;41.13;;;;;;;-1.74;100.00;101225.25;5024359;28;20045;-79
2022/02/19 05:29:10;;;;;;;44.72;41.40;;;;;;;-1.67;100.00;101225.63;5026977;28;20428;-78
2022/02/19 05:31:39;;;;;;;41.67;38.28;;;;;;;-1.60;100.00;101221.63;5022014;28;20061;-80
2022/02/19 05:34:05;;;;;;;41.67;38.03;;;;;;;-1.63;100.00;101217.47;5027479;28;20060;-79
2022/02/19 05:36:32;;;;;;;41.03;37.22;;;;;;;-1.36;100.00;101207.69;5034704;28;20468;-80
2022/02/19 05:39:02;;;;;;;42.38;38.58;;;;;;;-1.22;100.00;101200.47;5028135;28;20057;-83
2022/02/19 05:41:29;;;;;;;43.65;39.33;;;;;;;-1.08;100.00;101196.81;5024886;28;20129;-78
2022/02/19 05:44:00;;;;;;;42.50;38.67;;;;;;;-1.17;100.00;101185.31;5025587;28;20057;-80
2022/02/19 05:46:27;;;;;;;46.63;42.08;;;;;;;-0.63;100.00;101196.78;5029081;28;20060;-79
2022/02/19 05:48:56;;;;;;;45.78;41.92;;;;;;;-0.43;100.00;101204.78;5021590;28;20124;-80
2022/02/19 05:51:24;;;;;;;40.75;37.30;;;;;;;-0.25;100.00;101198.09;5019102;28;20049;-82
2022/02/19 05:53:51;;;;;;;42.90;39.50;;;;;;;-0.14;100.00;101192.00;5020018;28;20122;-79
2022/02/19 05:56:17;;;;;;;45.60;41.60;;;;;;;-0.05;100.00;101196.47;5021813;28;20062;-81
2022/02/19 05:58:46;;;;;;;41.50;37.85;;;;;;;0.32;100.00;101201.28;5021727;28;20375;-78
2022/02/19 06:01:15;;;;;;;42.40;38.88;;;;;;;0.45;100.00;101201.91;5027642;28;20045;-80
2022/02/19 06:03:48;;;;;;;41.63;38.00;;;;;;;0.62;100.00;101208.34;5028596;28;20058;-80
2022/02/19 06:06:23;;;;;;;39.45;36.63;;;;;;;0.85;100.00;101212.47;5032333;28;20054;-80
2022/02/19 06:09:02;;;;;;;45.08;41.95;;;;;;;0.91;100.00;101209.34;5022419;28;20456;-80
2022/02/19 06:11:28;;;;;;;44.85;41.47;;;;;;;1.09;100.00;101204.31;5022842;28;20056;-79
2022/02/19 06:13:58;;;;;;;44.75;41.45;;;;;;;1.27;100.00;101198.44;5027246;28;20559;-79
2022/02/19 06:16:26;;;;;;;44.10;41.05;;;;;;;1.50;100.00;101202.47;5016809;28;20449;-78
2022/02/19 06:19:03;;;;;;;47.15;43.85;;;;;;;1.77;100.00;101199.22;5031233;28;20103;-80
2022/02/19 06:21:33;;;;;;;46.90;43.63;;;;;;;1.80;100.00;101204.19;5022286;28;20054;-80
2022/02/19 06:24:00;;;;;;;47.00;43.63;;;;;;;2.12;100.00;101204.88;5021751;28;20123;-79
2022/02/19 06:26:28;;;;;;;44.55;41.47;;;;;;;2.33;100.00;101204.72;5023685;28;20539;-80
2022/02/19 06:29:01;;;;;;;44.30;41.20;;;;;;;2.70;100.00;101195.13;5022784;28;20107;-80
2022/02/19 06:31:28;;;;;;;44.95;41.85;;;;;;;2.91;100.00;101201.97;5021740;28;20057;-78
2022/02/19 06:33:55;;;;;;;44.00;40.90;;;;;;;2.94;100.00;101188.56;5017596;28;20042;-78
2022/02/19 06:36:22;;;;;;;43.78;40.83;;;;;;;3.42;100.00;101190.94;5026088;28;20045;-80
2022/02/19 06:38:52;;;;;;;43.58;40.78;;;;;;;2.77;100.00;101191.94;5031259;28;20133;-79
2022/02/19 06:41:39;;;;;;;42.65;39.47;;;;;;;3.33;100.00;101189.19;5024751;28;20053;-81
2022/02/19 06:44:08;;;;;;;42.92;40.22;;;;;;;3.77;100.00;101191.09;5026640;28;20049;-81
2022/02/19 06:46:35;;;;;;;42.13;39.25;;;;;;;4.15;100.00;101194.41;5027328;28;20240;-79
2022/02/19 06:49:02;;;;;;;45.58;42.92;;;;;;;3.85;100.00;101193.81;5031173;28;20053;-80
2022/02/19 06:51:29;;;;;;;42.65;40.03;;;;;;;3.73;100.00;101195.84;5025420;28;20135;-80
2022/02/19 06:53:58;;;;;;;41.42;38.83;;;;;;;4.25;100.00;101195.13;5021894;28;20049;-80
2022/02/19 06:56:26;;;;;;;45.42;42.38;;;;;;;4.34;100.00;101184.50;5023504;28;20505;-82
2022/02/19 06:58:54;;;;;;;48.13;44.55;;;;;;;4.94;100.00;101173.19;5022315;28;20413;-80
2022/02/19 07:01:21;;;;;;;50.53;46.90;;;;;;;4.45;100.00;101178.19;5024815;28;20085;-79
2022/02/19 07:03:48;;;;;;;48.83;45.47;;;;;;;4.73;100.00;101162.22;5021472;28;20227;-78
2022/02/19 07:06:15;;;;;;;50.65;47.15;;;;;;;4.96;100.00;101165.13;5022349;28;20064;-80
2022/02/19 07:08:43;;;;;;;48.33;45.20;;;;;;;4.75;98.86;101160.25;5023881;28;20143;-79
2022/02/19 07:11:11;;;;;;;46.63;43.63;;;;;;;4.77;100.00;101155.66;5019943;28;20717;-80
2022/02/19 07:13:40;;;;;;;44.15;41.60;;;;;;;5.19;97.21;101152.22;5023035;28;20096;-79
2022/02/19 07:16:07;;;;;;;43.78;41.13;;;;;;;5.82;95.82;101164.03;5019303;28;20081;-80
2022/02/19 07:18:34;;;;;;;41.92;39.42;;;;;;;5.84;92.06;101157.63;5022338;28;20057;-79
2022/02/19 07:21:01;;;;;;;41.85;39.30;;;;;;;6.35;90.15;101154.81;5020350;28;20060;-79
2022/02/19 07:23:28;;;;;;;46.17;42.67;;;;;;;6.47;89.31;101136.81;5028520;28;20050;-78
2022/02/19 07:25:55;;;;;;;46.50;43.60;;;;;;;7.29;85.44;101134.66;5015349;28;20551;-80
2022/02/19 07:28:23;;;;;;;46.90;44.15;;;;;;;7.77;80.71;101137.97;5026957;28;20049;-81
2022/02/19 07:30:50;;;;;;;46.85;44.15;;;;;;;8.14;78.54;101139.84;5021376;28;20046;-78
2022/02/19 07:33:17;;;;;;;49.85;46.90;;;;;;;8.57;78.57;101131.31;5024307;28;20122;-79
2022/02/19 07:35:44;;;;;;;47.92;44.55;;;;;;;8.32;74.72;101126.25;5022329;28;20482;-80
2022/02/19 07:38:11;;;;;;;47.90;44.97;;;;;;;8.31;74.27;101124.59;5029661;28;20375;-80
2022/02/19 07:40:38;;;;;;;46.80;44.20;;;;;;;8.81;73.46;101114.34;5023466;28;20127;-78
2022/02/19 07:43:05;;;;;;;46.20;43.47;;;;;;;9.28;71.93;101123.63;5022786;28;20120;-80
2022/02/19 07:45:35;;;;;;;46.05;43.33;;;;;;;10.11;72.23;101122.19;5023294;28;20493;-80
2022/02/19 07:48:03;;;;;;;44.45;42.03;;;;;;;9.86;68.20;101135.84;5034835;28;20049;-82
2022/02/19 07:58:52;;;;;;;47.30;44.25;;;;;;;12.37;61.63;101121.03;4978477;28;20100;-81
2022/02/19 08:01:20;;;;;;;49.72;46.60;;;;;;;12.23;60.56;101119.41;5030108;28;20050;-78
2022/02/19 08:03:47;;;;;;;41.35;38.90;;;;;;;12.54;57.73;101115.25;5033499;28;20065;-78
2022/02/19 08:06:13;;;;;;;40.95;38.45;;;;;;;12.34;57.52;101113.47;5031436;28;20053;-81
2022/02/19 08:08:41;;;;;;;41.78;38.97;;;;;;;12.92;56.49;101120.69;5030489;28;20430;-78
2022/02/19 08:11:08;;;;;;;43.40;40.67;;;;;;;12.51;55.45;101116.50;5028660;28;20049;-81
2022/02/19 08:13:35;;;;;;;45.97;43.47;;;;;;;12.81;53.90;101116.81;5027437;28;20545;-80
2022/02/19 08:16:02;;;;;;;45.38;42.63;;;;;;;14.19;55.22;101126.84;5031400;28;20053;-80
2022/02/19 08:18:32;;;;;;;47.20;44.42;;;;;;;14.76;50.25;101113.31;5020046;28;20050;-80
2022/02/19 08:20:59;;;;;;;51.00;47.97;;;;;;;14.08;50.11;101113.38;5032110;28;20132;-77
2022/02/19 08:23:26;;;;;;;46.00;43.13;;;;;;;13.47;49.87;101114.88;5033442;28;20075;-80
2022/02/19 08:25:53;;;;;;;47.90;44.88;;;;;;;13.81;50.66;101110.94;5028478;28;20046;-81
2022/02/19 08:28:20;;;;;;;47.30;43.95;;;;;;;14.66;51.44;101102.34;5031766;28;20041;-80
2022/02/19 08:30:47;;;;;;;47.38;44.35;;;;;;;15.12;47.91;101100.94;5025154;28;20057;-81
2022/02/19 08:33:14;;;;;;;42.38;39.97;;;;;;;14.92;47.06;101117.25;5022963;28;20120;-80
2022/02/19 08:35:44;;;;;;;43.88;41.42;;;;;;;14.75;44.94;101126.91;5027163;28;20049;-82
2022/02/19 08:38:11;;;;;;;42.53;40.33;;;;;;;14.18;46.07;101135.06;5035091;28;20115;-81
2022/02/19 08:40:40;;;;;;;40.63;38.22;;;;;;;14.69;45.31;101125.13;5025941;28;20052;-83
2022/02/19 08:43:08;;;;;;;41.03;38.70;;;;;;;13.92;47.67;101125.44;5029250;28;20042;-81
2022/02/19 08:45:39;;;;;;;41.35;38.97;;;;;;;15.34;45.05;101134.19;5031755;28;20041;-82
2022/02/19 08:48:09;;;;;;;42.55;40.20;;;;;;;15.60;43.63;101126.81;5025091;28;20650;-79
2022/02/19 08:50:40;;;;;;;45.50;42.65;;;;;;;15.52;43.98;101127.13;5025573;28;20136;-80
2022/02/19 08:53:13;;;;;;;42.95;40.33;;;;;;;15.96;43.77;101133.06;5024210;28;20046;-80
2022/02/19 08:55:42;;;;;;;45.33;42.75;;;;;;;16.12;42.91;101135.06;5015198;28;20111;-79
2022/02/19 08:58:09;;;;;;;41.83;39.42;;;;;;;16.31;42.97;101127.75;5023703;28;20540;-81
2022/02/19 09:00:37;;;;;;;42.78;39.75;;;;;;;14.40;44.75;101124.78;5015710;28;20566;-80
2022/02/19 09:03:04;;;;;;;44.45;42.15;;;;;;;15.93;42.76;101126.31;5025724;28;20103;-79
2022/02/19 09:05:31;;;;;;;45.47;42.83;;;;;;;16.35;41.53;101128.91;5021756;28;20490;-79
2022/02/19 09:08:00;;;;;;;41.70;39.05;;;;;;;16.87;40.85;101123.59;5025589;28;20053;-80
2022/02/19 09:10:28;;;;;;;41.05;38.72;;;;;;;16.59;40.02;101132.38;5027650;28;20045;-79
2022/02/19 09:12:55;;;;;;;42.03;39.53;;;;;;;16.69;40.95;101119.16;5027122;28;20050;-80
2022/02/19 09:15:25;;;;;;;40.10;37.38;;;;;;;17.24;44.02;101125.09;5022391;28;20049;-79
2022/02/19 09:17:52;;;;;;;45.33;42.58;;;;;;;14.81;46.07;101132.19;5034085;28;20053;-82
2022/02/19 09:20:21;;;;;;;44.90;41.92;;;;;;;15.35;47.53;101135.00;5033110;28;20478;-80
2022/02/19 09:22:48;;;;;;;47.63;44.47;;;;;;;14.62;48.92;101146.59;5035007;28;20065;-79
2022/02/19 09:25:15;;;;;;;46.63;43.72;;;;;;;15.10;48.45;101138.63;5028806;28;20120;-79
2022/02/19 09:27:44;;;;;;;46.05;42.40;;;;;;;14.90;49.67;101135.38;5027590;28;20061;-79
2022/02/19 09:30:13;;;;;;;47.38;44.05;;;;;;;14.75;50.51;101134.94;5034804;28;20064;-80
2022/02/19 09:32:40;;;;;;;46.40;42.90;;;;;;;14.52;51.32;101139.06;5027144;28;20478;-78
2022/02/19 09:35:08;;;;;;;46.65;43.38;;;;;;;15.31;51.55;101123.94;5028812;28;20120;-78
2022/02/19 09:37:35;;;;;;;44.25;41.17;;;;;;;17.65;45.63;101123.94;5021067;28;20061;-79
2022/02/19 09:40:04;;;;;;;43.67;40.67;;;;;;;19.98;40.67;101123.59;5022545;28;20131;-79
2022/02/19 09:42:31;;;;;;;43.30;39.92;;;;;;;18.04;43.68;101121.38;5024619;28;20041;-81
2022/02/19 09:45:00;;;;;;;47.10;44.28;;;;;;;16.70;42.89;101117.28;5029214;28;20057;-78
2022/02/19 09:47:29;;;;;;;46.60;43.80;;;;;;;18.04;43.31;101116.00;5028431;28;20493;-79
2022/02/19 09:49:57;;;;;;;40.10;37.28;;;;;;;18.62;40.85;101105.78;5028144;28;20049;-78
2022/02/19 09:52:24;;;;;;;41.83;39.03;;;;;;;20.28;39.78;101098.72;5027450;28;20038;-78
2022/02/19 09:54:51;;;;;;;39.53;36.63;;;;;;;17.44;42.38;101103.97;5029751;28;20042;-80
2022/02/19 09:57:18;;;;;;;39.90;37.20;;;;;;;19.97;38.41;101095.03;5029966;28;20540;-80
2022/02/19 09:59:45;;;;;;;42.33;39.45;;;;;;;19.33;40.17;101085.03;5023726;28;20100;-80
2022/02/19 10:02:13;;;;;;;47.65;44.95;;;;;;;20.55;35.52;101087.03;5021247;28;20120;-80
2022/02/19 10:04:45;;;;;;;42.80;40.15;;;;;;;21.32;35.45;101085.31;5032949;28;20111;-79
2022/02/19 10:07:13;;;;;;;43.10;40.30;;;;;;;20.94;34.25;101082.03;5026766;28;20049;-80
2022/02/19 10:09:40;;;;;;;46.88;44.03;;;;;;;22.13;33.37;101081.78;5031963;28;20296;-79
2022/02/19 10:12:12;;;;;;;47.15;43.97;;;;;;;20.85;34.11;101082.78;5031038;28;20437;-80
2022/02/19 10:14:39;;;;;;;40.42;37.72;;;;;;;22.61;32.80;101081.41;5022883;28;20482;-79
2022/02/19 10:17:15;;;;;;;43.85;41.25;;;;;;;23.07;32.14;101073.03;5022711;28;20544;-79
2022/02/19 10:19:51;;;;;;;40.47;37.67;;;;;;;21.62;33.54;101070.22;5028621;28;20087;-78
2022/02/19 10:22:21;;;;;;;38.28;35.78;;;;;;;21.94;33.53;101065.34;5027844;28;20050;-80
2022/02/19 10:24:49;;;;;;;38.47;36.00;;;;;;;24.17;32.02;101070.75;5027973;28;20054;-79
2022/02/19 10:27:16;;;;;;;45.15;42.53;;;;;;;23.71;29.09;101071.22;5017911;28;20100;-78
2022/02/19 10:29:53;;;;;;;44.50;41.80;;;;;;;22.33;31.42;101075.56;5035283;28;20124;-78
2022/02/19 10:32:22;;;;;;;42.40;39.50;;;;;;;20.23;32.81;101065.53;5028098;28;20541;-79
2022/02/19 10:35:06;;;;;;;43.65;41.05;;;;;;;20.70;32.12;101065.50;5032808;28;20107;-81
2022/02/19 10:37:43;;;;;;;43.38;40.67;;;;;;;22.53;29.74;101061.13;5031369;28;20049;-81
2022/02/19 10:40:39;;;;;;;45.75;42.97;;;;;;;22.70;28.86;101052.66;5035846;28;20045;-82
2022/02/19 10:43:17;;;;;;;37.92;35.67;;;;;;;22.22;29.83;101051.50;5028616;28;20053;-78
2022/02/19 10:45:56;;;;;;;37.08;34.83;;;;;;;19.89;31.46;101044.31;5025541;28;20042;-78
2022/02/19 10:48:25;;;;;;;38.40;36.10;;;;;;;19.97;32.62;101046.50;5027245;28;20093;-78
2022/02/19 10:51:07;;;;;;;46.92;44.00;;;;;;;19.06;35.92;101043.84;5032667;28;20160;-79
2022/02/19 10:53:36;;;;;;;45.63;42.15;;;;;;;16.43;40.19;101045.44;5028696;28;20129;-79
2022/02/19 10:56:10;;;;;;;42.00;39.45;;;;;;;18.28;34.92;101044.84;5028728;28;20053;-80
2022/02/19 10:58:37;;;;;;;41.83;39.10;;;;;;;18.41;35.35;101042.84;5027417;28;20136;-78
2022/02/19 11:01:19;;;;;;;40.47;37.78;;;;;;;21.09;33.43;101027.25;5033406;28;20107;-79
2022/02/19 11:03:55;;;;;;;45.17;42.33;;;;;;;21.07;30.67;101021.28;5031942;28;20386;-78
2022/02/19 11:06:25;;;;;;;40.28;36.83;;;;;;;20.13;35.24;101029.34;5034925;28;20500;-79
2022/02/19 11:08:53;;;;;;;38.85;36.38;;;;;;;18.79;32.43;101025.00;5029166;28;20046;-78
2022/02/19 11:11:27;;;;;;;37.92;35.45;;;;;;;20.34;31.47;101013.25;5033442;28;20425;-79
2022/02/19 11:13:54;;;;;;;43.50;41.15;;;;;;;19.60;31.43;101009.56;5032657;28;20068;-79
2022/02/19 11:16:22;;;;;;;44.75;42.17;;;;;;;20.32;29.94;101015.41;5031294;28;20115;-79
2022/02/19 11:18:49;;;;;;;45.40;42.83;;;;;;;19.86;31.01;101001.69;5030515;28;20053;-78
2022/02/19 11:21:17;;;;;;;42.03;39.47;;;;;;;19.45;29.74;101004.06;5033213;28;20057;-78